Time;durP1;ratioP1;P1;durP2;ratioP2;P2;SDS_P1;SDS_P2;PMS_P1;PMS_P2;Temp;Humidity;BMP_temperature;BMP_pressure;BME280_temperature;BME280_humidity;BME280_pressure;Samples;Min_cycle;Max_cycle;Signal;HPM_P1;HPM_P2
2022/12/07 00:01:17;;;;;;;8.75;1.80;;;3.00;99.90;;;;;;5057616;28;20549;-47
2022/12/07 00:03:44;;;;;;;10.00;1.67;;;3.00;99.90;;;;;;5057595;28;20104;-50
2022/12/07 00:06:12;;;;;;;8.98;1.63;;;3.00;99.90;;;;;;5056753;28;20504;-44
2022/12/07 00:08:38;;;;;;;10.30;2.03;;;2.90;99.90;;;;;;5056832;28;20143;-47
2022/12/07 00:11:13;;;;;;;13.77;2.40;;;2.90;99.90;;;;;;5055680;28;20379;-45
2022/12/07 00:13:40;;;;;;;12.73;1.95;;;2.90;99.90;;;;;;5057353;28;20052;-45
2022/12/07 00:16:09;;;;;;;13.35;1.90;;;2.90;99.90;;;;;;5057385;28;20055;-44
2022/12/07 00:18:36;;;;;;;10.23;1.85;;;2.90;99.90;;;;;;5054780;28;20048;-46
2022/12/07 00:21:06;;;;;;;15.70;2.10;;;3.00;99.90;;;;;;5057779;28;20049;-46
2022/12/07 00:23:32;;;;;;;7.97;1.50;;;3.00;99.90;;;;;;5057915;28;20221;-47
2022/12/07 00:26:04;;;;;;;10.52;1.83;;;2.90;99.90;;;;;;5057706;28;20422;-45
2022/12/07 00:28:29;;;;;;;6.93;2.20;;;3.10;99.90;;;;;;5058099;28;20052;-48
2022/12/07 00:31:07;;;;;;;10.85;1.92;;;3.00;99.90;;;;;;5055690;28;20052;-43
2022/12/07 00:33:34;;;;;;;11.73;2.50;;;3.00;99.90;;;;;;5056283;28;20069;-47
2022/12/07 00:36:00;;;;;;;6.97;1.50;;;3.00;99.90;;;;;;5057000;28;20055;-47
2022/12/07 00:38:29;;;;;;;8.00;1.45;;;3.00;99.90;;;;;;5056419;28;20124;-46
2022/12/07 00:41:00;;;;;;;10.68;2.58;;;3.10;99.90;;;;;;5044644;28;20051;-47
2022/12/07 00:43:27;;;;;;;9.45;1.85;;;3.10;99.90;;;;;;5057088;28;20063;-45
2022/12/07 00:45:53;;;;;;;7.88;1.40;;;3.10;99.90;;;;;;5056879;28;20331;-47
2022/12/07 00:48:19;;;;;;;11.13;2.65;;;3.10;99.90;;;;;;5054842;28;20392;-47
2022/12/07 00:50:45;;;;;;;11.32;1.70;;;3.20;99.90;;;;;;5057085;28;20051;-44
2022/12/07 00:53:11;;;;;;;10.07;1.70;;;3.20;99.90;;;;;;5075308;28;20427;-44
2022/12/07 00:55:36;;;;;;;12.55;2.20;;;3.10;99.90;;;;;;5056349;28;20060;-43
2022/12/07 00:58:03;;;;;;;9.13;1.50;;;3.20;99.90;;;;;;5057036;28;20098;-46
2022/12/07 01:00:29;;;;;;;12.57;2.33;;;3.20;99.90;;;;;;5056728;28;20044;-45
2022/12/07 01:02:54;;;;;;;8.95;1.70;;;3.20;99.90;;;;;;5056326;28;20478;-46
2022/12/07 01:05:20;;;;;;;6.68;1.50;;;3.20;99.90;;;;;;5056702;28;21068;-45
2022/12/07 01:07:46;;;;;;;8.45;1.50;;;3.20;99.90;;;;;;5056261;28;20132;-46
2022/12/07 01:10:13;;;;;;;10.98;1.60;;;3.20;99.90;;;;;;5054451;28;20858;-43
2022/12/07 01:12:39;;;;;;;6.82;1.60;;;3.30;99.90;;;;;;5056527;28;20087;-47
2022/12/07 01:15:05;;;;;;;6.75;1.45;;;3.30;99.90;;;;;;5055926;28;20147;-47
2022/12/07 01:17:31;;;;;;;10.15;1.60;;;3.40;99.90;;;;;;5053413;28;20044;-45
2022/12/07 01:19:57;;;;;;;10.85;1.45;;;3.40;99.90;;;;;;5055647;28;20048;-47
2022/12/07 01:22:22;;;;;;;7.30;1.33;;;3.30;99.90;;;;;;5057454;28;20052;-43
2022/12/07 01:24:48;;;;;;;11.65;1.73;;;3.40;99.90;;;;;;5056285;28;20710;-49
2022/12/07 01:27:14;;;;;;;5.65;1.42;;;3.40;99.90;;;;;;5055738;28;20409;-45
2022/12/07 01:29:39;;;;;;;7.50;1.20;;;3.30;99.90;;;;;;5056403;28;20518;-47
2022/12/07 01:32:05;;;;;;;9.43;1.58;;;3.30;99.90;;;;;;5055695;28;20145;-45
2022/12/07 01:34:31;;;;;;;6.78;1.60;;;3.20;99.90;;;;;;5056233;28;20048;-44
2022/12/07 01:36:57;;;;;;;10.07;1.55;;;3.20;99.90;;;;;;5056544;28;20059;-43
2022/12/07 01:39:23;;;;;;;11.38;1.30;;;3.10;99.90;;;;;;5047984;28;20056;-44
2022/12/07 01:41:50;;;;;;;7.13;1.27;;;3.00;99.90;;;;;;5050949;28;20105;-45
2022/12/07 01:44:21;;;;;;;11.93;1.63;;;2.90;99.90;;;;;;5055075;28;20159;-43
2022/12/07 01:46:53;;;;;;;5.35;1.42;;;3.00;99.90;;;;;;5055436;28;20105;-45
2022/12/07 01:49:22;;;;;;;6.38;1.35;;;3.00;99.90;;;;;;5055357;28;20221;-48
2022/12/07 01:51:51;;;;;;;9.70;1.52;;;3.10;99.90;;;;;;5056253;28;20414;-46
2022/12/07 01:54:17;;;;;;;6.28;1.40;;;3.10;99.90;;;;;;5047653;28;20052;-44
2022/12/07 01:56:51;;;;;;;9.10;1.35;;;3.20;99.90;;;;;;5055185;28;20071;-45
2022/12/07 01:59:19;;;;;;;8.43;1.42;;;3.20;99.90;;;;;;5054187;28;20135;-43
2022/12/07 02:01:45;;;;;;;9.00;1.20;;;3.20;99.90;;;;;;5055809;28;20584;-44
2022/12/07 02:04:11;;;;;;;8.73;1.25;;;3.20;99.90;;;;;;5055757;28;20052;-46
2022/12/07 02:06:38;;;;;;;8.60;1.30;;;3.20;99.90;;;;;;5055712;28;20044;-46
2022/12/07 02:09:04;;;;;;;8.35;1.50;;;3.20;99.90;;;;;;5054690;28;20148;-46
2022/12/07 02:11:30;;;;;;;6.15;1.30;;;3.10;99.90;;;;;;5054863;28;20118;-47
2022/12/07 02:13:56;;;;;;;11.02;1.95;;;3.10;99.90;;;;;;5055869;28;20113;-46
2022/12/07 02:16:34;;;;;;;9.00;1.25;;;3.10;99.90;;;;;;5055635;28;20076;-43
2022/12/07 02:19:18;;;;;;;10.77;1.55;;;3.20;99.90;;;;;;5053099;28;20055;-49
2022/12/07 02:21:47;;;;;;;;;;;3.20;99.90;;;;;;5056810;28;20056;-46
2022/12/07 02:24:36;;;;;;;7.82;1.58;;;3.20;99.90;;;;;;5055643;28;20275;-43
2022/12/07 02:27:16;;;;;;;8.95;1.20;;;3.40;99.90;;;;;;5055057;28;20115;-43
2022/12/07 02:29:49;;;;;;;5.65;1.00;;;3.40;99.90;;;;;;5079140;28;20049;-46
2022/12/07 02:32:48;;;;;;;6.78;1.45;;;3.40;99.90;;;;;;5052382;28;20091;-49
2022/12/07 02:35:24;;;;;;;7.85;1.20;;;3.50;99.90;;;;;;5055810;28;20095;-47
2022/12/07 02:38:14;;;;;;;6.15;1.40;;;3.40;99.90;;;;;;5055848;28;20110;-47
2022/12/07 02:41:04;;;;;;;7.45;2.00;;;3.40;99.90;;;;;;5041619;28;20137;-47
2022/12/07 02:43:43;;;;;;;6.50;1.35;;;3.40;99.90;;;;;;5055190;28;20056;-48
2022/12/07 02:46:13;;;;;;;10.63;1.10;;;3.40;99.90;;;;;;5055289;28;20060;-44
2022/12/07 02:48:41;;;;;;;6.90;1.17;;;3.40;99.90;;;;;;5055421;28;20048;-46
2022/12/07 02:51:06;;;;;;;6.50;1.00;;;3.40;99.90;;;;;;5055106;28;20498;-43
2022/12/07 02:53:38;;;;;;;10.68;1.77;;;3.40;99.90;;;;;;5054394;28;20068;-42
2022/12/07 02:56:31;;;;;;;8.80;1.30;;;3.40;99.90;;;;;;5058835;28;20310;-47
2022/12/07 02:59:18;;;;;;;12.55;1.45;;;3.40;99.90;;;;;;5058503;28;20052;-45
2022/12/07 03:01:59;;;;;;;7.38;1.73;;;3.40;99.90;;;;;;5054761;28;20062;-47
2022/12/07 03:04:33;;;;;;;11.70;1.83;;;3.40;99.90;;;;;;5045855;28;20048;-50
2022/12/07 03:07:33;;;;;;;8.07;1.83;;;3.40;99.90;;;;;;5057352;28;20048;-47
2022/12/07 03:10:43;;;;;;;11.45;1.60;;;3.40;99.90;;;;;;5058597;28;20587;-45
2022/12/07 03:13:39;;;;;;;10.10;1.60;;;3.30;99.90;;;;;;5074471;28;20168;-45
2022/12/07 03:16:19;;;;;;;10.20;1.77;;;3.30;99.90;;;;;;5075112;28;20573;-48
2022/12/07 03:19:19;;;;;;;5.65;1.10;;;3.30;99.90;;;;;;5069189;28;20127;-49
2022/12/07 03:21:53;;;;;;;7.20;1.55;;;3.30;99.90;;;;;;5015260;28;20582;-48
2022/12/07 03:24:24;;;;;;;8.70;1.60;;;3.30;99.90;;;;;;5014838;28;20053;-45
2022/12/07 03:27:01;;;;;;;8.95;2.05;;;3.30;99.90;;;;;;5014988;28;20095;-47
2022/12/07 03:29:37;;;;;;;8.27;1.70;;;3.20;99.90;;;;;;5007329;28;20053;-45
2022/12/07 03:32:27;;;;;;;7.43;1.20;;;3.10;99.90;;;;;;5013662;28;20119;-50
2022/12/07 03:35:00;;;;;;;10.00;1.80;;;3.10;99.90;;;;;;5014217;28;20069;-47
2022/12/07 03:37:34;;;;;;;13.02;1.88;;;3.00;99.90;;;;;;5014675;28;20045;-46
2022/12/07 03:40:02;;;;;;;;;;;3.00;99.90;;;;;;5002219;28;20167;-47
2022/12/07 03:42:30;;;;;;;11.18;1.50;;;3.00;99.90;;;;;;5002793;28;19970;-43
2022/12/07 03:44:56;;;;;;;10.23;1.60;;;2.90;99.90;;;;;;5001135;28;20619;-43
2022/12/07 03:47:25;;;;;;;17.42;4.00;;;2.90;99.90;;;;;;5014655;28;20049;-45
2022/12/07 03:50:00;;;;;;;9.40;1.40;;;2.90;99.90;;;;;;5014779;28;20060;-45
2022/12/07 03:52:34;;;;;;;9.55;1.38;;;2.90;99.90;;;;;;5014874;28;20057;-44
2022/12/07 03:55:24;;;;;;;14.60;2.08;;;2.90;99.90;;;;;;5014201;28;20119;-45
2022/12/07 03:57:54;;;;;;;8.35;1.20;;;2.90;99.90;;;;;;5029505;28;20061;-46
2022/12/07 04:00:19;;;;;;;9.02;1.35;;;3.00;99.90;;;;;;5058470;28;20241;-47
2022/12/07 04:02:45;;;;;;;8.20;1.58;;;3.00;99.90;;;;;;5056873;28;20360;-46
2022/12/07 04:05:11;;;;;;;10.02;1.67;;;2.90;99.90;;;;;;5058276;28;20493;-50
2022/12/07 04:07:37;;;;;;;8.27;1.33;;;2.90;99.90;;;;;;5057390;28;20064;-47
2022/12/07 04:10:04;;;;;;;7.15;1.30;;;2.90;99.90;;;;;;5057612;28;20116;-47
2022/12/07 04:12:29;;;;;;;8.35;1.58;;;2.90;99.90;;;;;;5057633;28;20602;-50
2022/12/07 04:14:55;;;;;;;8.30;1.42;;;2.90;99.90;;;;;;5057339;28;20082;-48
2022/12/07 04:17:21;;;;;;;6.30;1.08;;;2.90;99.90;;;;;;5053506;28;20148;-44
2022/12/07 04:19:46;;;;;;;6.95;1.00;;;2.90;99.90;;;;;;5054744;28;20479;-46
2022/12/07 04:22:12;;;;;;;7.22;1.70;;;2.90;99.90;;;;;;5057162;28;20044;-42
2022/12/07 04:24:38;;;;;;;4.53;1.00;;;2.80;99.90;;;;;;5056671;28;20059;-46
2022/12/07 04:27:04;;;;;;;9.82;1.27;;;2.80;99.90;;;;;;5056547;28;20044;-45
2022/12/07 04:29:30;;;;;;;7.50;1.00;;;2.80;99.90;;;;;;5056520;28;20417;-47
2022/12/07 04:31:55;;;;;;;6.10;1.50;;;2.70;99.90;;;;;;5057254;28;20090;-44
2022/12/07 04:34:21;;;;;;;6.75;1.00;;;2.70;99.90;;;;;;5054855;28;20088;-44
2022/12/07 04:36:47;;;;;;;5.28;1.13;;;2.70;99.90;;;;;;5056574;28;20411;-46
2022/12/07 04:39:23;;;;;;;4.45;1.05;;;2.60;99.90;;;;;;5049811;28;20052;-46
2022/12/07 04:41:49;;;;;;;6.55;1.10;;;2.60;99.90;;;;;;5051877;28;20360;-45
2022/12/07 04:44:15;;;;;;;6.70;1.05;;;2.50;99.90;;;;;;5056348;28;20051;-48
2022/12/07 04:46:41;;;;;;;7.70;1.00;;;2.50;99.90;;;;;;5056026;28;20541;-44
2022/12/07 04:49:07;;;;;;;7.53;2.08;;;2.40;99.90;;;;;;5056899;28;20605;-45
2022/12/07 04:51:32;;;;;;;5.85;0.98;;;2.40;99.90;;;;;;5057330;28;20060;-46
2022/12/07 04:53:58;;;;;;;6.95;1.15;;;2.30;99.90;;;;;;5056420;28;20052;-45
2022/12/07 04:56:24;;;;;;;6.05;0.98;;;2.20;99.90;;;;;;5055851;28;20589;-46
2022/12/07 04:58:52;;;;;;;6.65;1.00;;;2.20;99.90;;;;;;5056156;28;20052;-44
2022/12/07 05:01:19;;;;;;;5.95;1.00;;;2.10;99.90;;;;;;5053313;28;20075;-47
2022/12/07 05:03:45;;;;;;;6.60;1.30;;;2.10;99.90;;;;;;5055970;28;20079;-45
2022/12/07 05:06:11;;;;;;;5.00;1.08;;;2.10;99.90;;;;;;5054601;28;20238;-45
2022/12/07 05:08:37;;;;;;;9.10;1.40;;;2.10;99.90;;;;;;5055315;28;20048;-46
2022/12/07 05:11:04;;;;;;;7.05;1.00;;;2.10;99.90;;;;;;5056015;28;20125;-46
2022/12/07 05:13:32;;;;;;;8.18;1.15;;;2.10;99.90;;;;;;5055984;28;20048;-45
2022/12/07 05:15:58;;;;;;;6.03;1.05;;;2.10;99.90;;;;;;5056105;28;20503;-45
2022/12/07 05:18:24;;;;;;;6.93;1.15;;;2.10;99.90;;;;;;5051196;28;20060;-47
2022/12/07 05:20:50;;;;;;;9.40;1.27;;;2.20;99.90;;;;;;5055959;28;20503;-44
2022/12/07 05:23:16;;;;;;;8.15;1.17;;;2.20;99.90;;;;;;5055541;28;20123;-47
2022/12/07 05:25:42;;;;;;;6.88;1.30;;;2.10;99.90;;;;;;5055077;28;20055;-46
2022/12/07 05:28:08;;;;;;;8.20;1.13;;;2.20;99.90;;;;;;5055357;28;20064;-44
2022/12/07 05:30:34;;;;;;;7.85;1.40;;;2.20;99.90;;;;;;5055480;28;20040;-43
2022/12/07 05:32:59;;;;;;;7.65;1.88;;;2.20;99.90;;;;;;5054427;28;20538;-46
2022/12/07 05:35:25;;;;;;;4.13;0.93;;;2.20;99.90;;;;;;5055647;28;20455;-44
2022/12/07 05:37:51;;;;;;;11.10;1.83;;;2.40;99.90;;;;;;5055842;28;20049;-47
2022/12/07 05:40:17;;;;;;;8.30;1.40;;;2.50;99.90;;;;;;5041872;28;20057;-43
2022/12/07 05:42:42;;;;;;;9.80;1.73;;;2.60;99.90;;;;;;5055752;28;20797;-47
2022/12/07 05:45:10;;;;;;;12.32;1.33;;;2.60;99.90;;;;;;5053919;28;20040;-47
2022/12/07 05:47:36;;;;;;;6.53;0.90;;;2.80;99.90;;;;;;5054413;28;20041;-46
2022/12/07 05:50:01;;;;;;;11.07;1.40;;;2.80;99.90;;;;;;5056069;28;20052;-44
2022/12/07 05:52:27;;;;;;;10.77;1.40;;;2.80;99.90;;;;;;5055547;28;20492;-44
2022/12/07 05:54:53;;;;;;;9.25;1.30;;;2.90;99.90;;;;;;5055343;28;20056;-47
2022/12/07 05:57:18;;;;;;;9.05;1.52;;;2.80;99.90;;;;;;5055576;28;20048;-44
2022/12/07 05:59:44;;;;;;;7.78;1.15;;;2.90;99.90;;;;;;5055786;28;20045;-45
2022/12/07 06:02:13;;;;;;;4.40;0.90;;;3.00;99.90;;;;;;5056458;28;20045;-44
2022/12/07 06:04:42;;;;;;;6.45;1.67;;;3.00;99.90;;;;;;5056105;28;20569;-43
2022/12/07 06:07:09;;;;;;;9.10;1.15;;;2.90;99.90;;;;;;5056296;28;20041;-48
2022/12/07 06:09:35;;;;;;;8.00;1.05;;;2.90;99.90;;;;;;5056272;28;20163;-47
2022/12/07 06:14:45;;;;;;;7.20;1.33;;;2.80;99.90;;;;;;5056161;28;20512;-43
2022/12/07 06:17:12;;;;;;;6.85;1.30;;;2.80;99.90;;;;;;5054005;28;20049;-46
2022/12/07 06:19:38;;;;;;;9.82;1.42;;;2.80;99.90;;;;;;5054704;28;20212;-45
2022/12/07 06:22:04;;;;;;;5.65;1.13;;;2.70;99.90;;;;;;5056528;28;20105;-48
2022/12/07 06:24:31;;;;;;;7.95;1.42;;;2.60;99.90;;;;;;5055089;28;20514;-45
2022/12/07 06:26:57;;;;;;;6.25;1.30;;;2.70;99.90;;;;;;5055960;28;20045;-43
2022/12/07 06:29:23;;;;;;;9.27;1.38;;;2.60;99.90;;;;;;5055292;28;20048;-47
2022/12/07 06:31:49;;;;;;;9.45;1.33;;;2.60;99.90;;;;;;5059296;28;20813;-45
2022/12/07 06:34:17;;;;;;;10.35;1.75;;;2.50;99.90;;;;;;5058794;28;20404;-47
2022/12/07 06:36:43;;;;;;;11.65;1.80;;;2.50;99.90;;;;;;5060214;28;20487;-43
2022/12/07 06:39:08;;;;;;;4.50;1.40;;;2.40;99.90;;;;;;5052897;28;20503;-47
2022/12/07 06:41:38;;;;;;;7.40;1.50;;;2.50;99.90;;;;;;5051551;28;20055;-45
2022/12/07 06:44:06;;;;;;;9.88;1.77;;;2.40;99.90;;;;;;5045927;28;20123;-48
2022/12/07 06:46:32;;;;;;;7.43;1.25;;;2.40;99.90;;;;;;5072290;28;20044;-44
2022/12/07 06:48:58;;;;;;;10.10;1.25;;;2.30;99.90;;;;;;5059450;28;20205;-44
2022/12/07 06:51:24;;;;;;;7.00;1.45;;;2.30;99.90;;;;;;5059438;28;20129;-46
2022/12/07 06:53:50;;;;;;;8.30;1.67;;;2.20;99.90;;;;;;5057703;28;20095;-46
2022/12/07 06:56:15;;;;;;;12.15;1.83;;;2.20;99.90;;;;;;5058843;28;20066;-43
2022/12/07 06:58:41;;;;;;;14.73;2.10;;;2.10;99.90;;;;;;5058528;28;20105;-47
2022/12/07 07:01:15;;;;;;;7.90;2.30;;;2.20;99.90;;;;;;5059800;28;20049;-45
2022/12/07 07:03:41;;;;;;;9.50;1.60;;;2.20;99.90;;;;;;5058226;28;20392;-43
2022/12/07 07:06:07;;;;;;;9.48;1.58;;;2.10;99.90;;;;;;5061102;28;20062;-43
2022/12/07 07:08:34;;;;;;;11.80;1.95;;;2.10;99.90;;;;;;5071864;28;20053;-44
2022/12/07 07:11:00;;;;;;;15.65;2.88;;;2.00;99.90;;;;;;5059870;28;20055;-46
2022/12/07 07:13:27;;;;;;;11.43;1.48;;;2.10;99.90;;;;;;5058054;28;20048;-43
2022/12/07 07:15:53;;;;;;;8.85;1.90;;;2.10;99.90;;;;;;5058528;28;20049;-43
2022/12/07 07:18:19;;;;;;;8.13;1.88;;;2.10;99.90;;;;;;5056548;28;20062;-47
2022/12/07 07:20:44;;;;;;;9.30;1.40;;;2.20;99.90;;;;;;5058853;28;20041;-45
2022/12/07 07:23:10;;;;;;;11.05;1.80;;;2.20;99.90;;;;;;5058798;28;20063;-45
2022/12/07 07:25:36;;;;;;;13.07;2.10;;;2.30;99.90;;;;;;5058618;28;20143;-46
2022/12/07 07:28:01;;;;;;;9.75;1.98;;;2.20;99.90;;;;;;5059079;28;20054;-44
2022/12/07 07:30:27;;;;;;;14.00;2.15;;;2.30;99.90;;;;;;5058960;28;20136;-43
2022/12/07 07:32:58;;;;;;;8.88;1.75;;;2.30;99.90;;;;;;5056598;28;20048;-46
2022/12/07 07:35:24;;;;;;;6.68;2.00;;;2.20;99.90;;;;;;5057098;28;20056;-47
2022/12/07 07:37:50;;;;;;;7.35;1.52;;;2.20;99.90;;;;;;5056676;28;20584;-48
2022/12/07 07:40:15;;;;;;;9.73;2.00;;;2.10;99.90;;;;;;5054959;28;20178;-44
2022/12/07 07:42:41;;;;;;;7.60;2.10;;;2.10;99.90;;;;;;5055360;28;20387;-47
2022/12/07 07:45:07;;;;;;;8.25;1.75;;;2.00;99.90;;;;;;5057222;28;20089;-43
2022/12/07 07:47:33;;;;;;;10.60;1.70;;;2.00;99.90;;;;;;5057368;28;20410;-46
2022/12/07 07:49:59;;;;;;;8.27;1.48;;;1.90;99.90;;;;;;5057379;28;20040;-45
2022/12/07 07:52:25;;;;;;;12.48;1.88;;;1.90;99.90;;;;;;5056666;28;20071;-48
2022/12/07 07:54:50;;;;;;;6.25;2.15;;;1.90;99.90;;;;;;5058136;28;20048;-45
2022/12/07 07:57:17;;;;;;;14.05;2.00;;;1.90;99.90;;;;;;5057919;28;20094;-42
2022/12/07 07:59:43;;;;;;;9.38;1.70;;;1.90;99.90;;;;;;5057646;28;20032;-42
2022/12/07 08:02:17;;;;;;;7.97;2.10;;;1.90;99.90;;;;;;5058028;28;20051;-46
2022/12/07 08:04:43;;;;;;;10.68;2.83;;;2.00;99.90;;;;;;5055847;28;20106;-45
2022/12/07 08:07:09;;;;;;;12.10;2.13;;;2.00;99.90;;;;;;5057319;28;20409;-47
2022/12/07 08:09:35;;;;;;;10.77;1.90;;;2.00;99.90;;;;;;5057547;28;20045;-45
2022/12/07 08:12:01;;;;;;;7.65;1.80;;;2.10;99.90;;;;;;5058023;28;20048;-43
2022/12/07 08:14:28;;;;;;;17.75;2.88;;;2.10;99.90;;;;;;5055205;28;20576;-43
2022/12/07 08:16:54;;;;;;;16.45;7.82;;;2.10;99.90;;;;;;5045802;28;20105;-46
2022/12/07 08:19:20;;;;;;;13.20;5.90;;;2.10;99.90;;;;;;5076014;28;20052;-47
2022/12/07 08:21:45;;;;;;;14.93;3.67;;;2.10;99.90;;;;;;5038546;28;20216;-46
2022/12/07 08:24:11;;;;;;;16.85;8.73;;;2.10;99.90;;;;;;5043943;28;20163;-48
2022/12/07 08:26:37;;;;;;;19.58;9.43;;;2.10;99.90;;;;;;5051204;28;20045;-44
2022/12/07 08:29:03;;;;;;;15.05;5.68;;;2.10;99.90;;;;;;5045143;28;20427;-46
2022/12/07 08:31:29;;;;;;;13.15;3.05;;;2.10;99.90;;;;;;5046778;28;20045;-49
2022/12/07 08:33:55;;;;;;;13.98;3.25;;;2.20;99.90;;;;;;5051447;28;20060;-47
2022/12/07 08:36:22;;;;;;;10.70;2.38;;;2.20;99.90;;;;;;5055580;28;20051;-45
2022/12/07 08:38:49;;;;;;;8.77;1.95;;;2.10;99.90;;;;;;5034468;28;20460;-43
2022/12/07 08:41:14;;;;;;;17.38;8.05;;;2.10;99.90;;;;;;5046881;28;20052;-43
2022/12/07 08:43:40;;;;;;;14.52;2.75;;;2.30;99.90;;;;;;5056159;28;20439;-49
2022/12/07 08:46:29;;;;;;;20.50;11.43;;;2.30;99.90;;;;;;5056719;28;20052;-45
2022/12/07 08:49:04;;;;;;;18.77;10.77;;;2.40;99.90;;;;;;5054895;28;20260;-45
2022/12/07 08:51:30;;;;;;;11.07;3.67;;;2.50;99.90;;;;;;5038809;28;20064;-45
2022/12/07 08:53:58;;;;;;;10.93;6.22;;;2.50;99.90;;;;;;5047313;28;20222;-44
2022/12/07 08:56:24;;;;;;;14.77;4.10;;;2.70;99.90;;;;;;5056463;28;20053;-47
2022/12/07 08:58:51;;;;;;;14.27;5.18;;;3.00;99.90;;;;;;5056287;28;20463;-47
2022/12/07 09:01:17;;;;;;;14.48;2.65;;;3.00;99.90;;;;;;5055529;28;20123;-45
2022/12/07 09:03:42;;;;;;;14.30;7.72;;;3.20;99.90;;;;;;5055604;28;20045;-43
2022/12/07 09:06:08;;;;;;;22.95;15.10;;;3.30;99.90;;;;;;5054833;28;20087;-44
2022/12/07 09:08:42;;;;;;;17.90;14.07;;;3.40;99.90;;;;;;5056867;28;20151;-44
2022/12/07 09:11:07;;;;;;;;;;;3.50;99.90;;;;;;5053156;28;20056;-44
2022/12/07 09:13:33;;;;;;;17.00;8.30;;;3.40;99.90;;;;;;5055248;28;20363;-43
2022/12/07 09:15:58;;;;;;;11.60;4.43;;;3.50;99.90;;;;;;5055301;28;20052;-45
2022/12/07 09:18:24;;;;;;;12.52;6.13;;;3.50;99.90;;;;;;5052971;28;20052;-44
2022/12/07 09:20:50;;;;;;;11.18;2.83;;;3.50;99.90;;;;;;5054874;28;20601;-44
2022/12/07 09:23:16;;;;;;;9.13;1.67;;;3.50;99.90;;;;;;5055126;28;20360;-51
2022/12/07 09:25:42;;;;;;;7.85;1.83;;;3.50;99.90;;;;;;5055330;28;20055;-43
2022/12/07 09:28:08;;;;;;;7.85;1.80;;;3.40;99.90;;;;;;5053820;28;20048;-47
2022/12/07 09:30:34;;;;;;;6.50;1.80;;;3.40;99.90;;;;;;5055867;28;20049;-50
2022/12/07 09:33:00;;;;;;;9.15;3.50;;;3.40;99.90;;;;;;5051877;28;20041;-48
2022/12/07 09:35:26;;;;;;;6.65;2.10;;;3.30;99.90;;;;;;5055315;28;20091;-46
2022/12/07 09:37:52;;;;;;;10.35;5.03;;;3.30;99.90;;;;;;5064611;28;20109;-47
2022/12/07 09:40:20;;;;;;;15.52;7.65;;;3.30;99.90;;;;;;5047477;28;20076;-47
2022/12/07 09:42:49;;;;;;;38.88;26.88;;;3.30;99.90;;;;;;5055794;28;20781;-45
2022/12/07 09:45:37;;;;;;;184.77;118.68;;;3.30;99.90;;;;;;5055631;28;20174;-47
2022/12/07 09:48:04;;;;;;;7.25;2.63;;;3.30;99.90;;;;;;5055704;28;20044;-42
2022/12/07 09:50:30;;;;;;;20.08;16.10;;;3.40;99.90;;;;;;5055253;28;20161;-45
2022/12/07 09:53:09;;;;;;;8.60;2.70;;;3.50;99.90;;;;;;5056240;28;20508;-45
2022/12/07 09:55:36;;;;;;;9.40;1.40;;;3.70;99.90;;;;;;5056201;28;20043;-45
2022/12/07 09:58:02;;;;;;;8.10;2.75;;;3.90;99.90;;;;;;5056381;28;20044;-44
2022/12/07 10:00:29;;;;;;;10.30;2.10;;;4.00;99.90;;;;;;5053644;28;20475;-48
2022/12/07 10:03:00;;;;;;;9.15;1.75;;;4.10;99.90;;;;;;5056614;28;20056;-45
2022/12/07 10:05:34;;;;;;;5.40;1.50;;;4.20;99.90;;;;;;5061811;28;20036;-43
2022/12/07 10:07:59;;;;;;;8.23;1.50;;;4.30;99.90;;;;;;5062926;28;20880;-46
2022/12/07 10:10:29;;;;;;;7.70;1.60;;;4.30;99.90;;;;;;5063555;28;20041;-47
2022/12/07 10:12:58;;;;;;;5.13;1.40;;;4.40;99.90;;;;;;5060919;28;20051;-46
2022/12/07 10:15:40;;;;;;;7.15;2.25;;;4.40;99.90;;;;;;5061038;28;20040;-47
2022/12/07 10:18:17;;;;;;;8.45;1.35;;;4.40;99.90;;;;;;5060440;28;20054;-46
2022/12/07 10:20:44;;;;;;;7.13;1.67;;;4.30;99.90;;;;;;5059746;28;20575;-46
2022/12/07 10:23:15;;;;;;;9.48;2.47;;;4.30;99.90;;;;;;5061878;28;20442;-45
2022/12/07 10:25:42;;;;;;;8.85;2.95;;;4.30;99.90;;;;;;5061868;28;20056;-47
2022/12/07 10:28:07;;;;;;;9.57;2.22;;;4.20;99.90;;;;;;5062946;28;20076;-47
2022/12/07 10:30:49;;;;;;;8.38;3.72;;;4.20;99.90;;;;;;5077576;28;20109;-44
2022/12/07 10:33:37;;;;;;;9.68;3.05;;;4.20;99.90;;;;;;5056190;28;20564;-44
2022/12/07 10:36:34;;;;;;;12.68;5.20;;;4.30;99.90;;;;;;5062616;28;20052;-44
2022/12/07 10:39:17;;;;;;;11.00;3.28;;;4.30;99.90;;;;;;5056825;28;20134;-46
2022/12/07 10:42:19;;;;;;;6.00;2.00;;;4.40;99.90;;;;;;5063376;28;20048;-43
2022/12/07 10:44:46;;;;;;;15.65;4.22;;;4.40;99.90;;;;;;5064938;28;20786;-44
2022/12/07 10:47:27;;;;;;;11.30;4.32;;;4.50;99.90;;;;;;5061071;28;20052;-41
2022/12/07 10:50:02;;;;;;;14.40;7.97;;;4.50;99.90;;;;;;5062089;28;20048;-43
2022/12/07 10:52:49;;;;;;;12.85;4.88;;;4.50;99.90;;;;;;5062387;28;20048;-44
2022/12/07 10:55:29;;;;;;;12.13;4.60;;;4.60;99.90;;;;;;5062591;28;20521;-43
2022/12/07 10:58:33;;;;;;;16.90;8.10;;;4.70;99.90;;;;;;5062949;28;20216;-46
2022/12/07 11:01:05;;;;;;;23.05;16.05;;;4.80;99.90;;;;;;5071528;28;20060;-49
2022/12/07 11:03:48;;;;;;;22.63;13.93;;;4.90;99.90;;;;;;5062785;28;20055;-41
2022/12/07 11:06:45;;;;;;;14.60;7.87;;;4.90;99.90;;;;;;5062215;28;20059;-43
2022/12/07 11:09:34;;;;;;;14.52;6.20;;;5.00;99.90;;;;;;5061984;28;20379;-45
2022/12/07 11:12:17;;;;;;;12.63;5.65;;;5.00;99.90;;;;;;5060707;28;20083;-44
2022/12/07 11:15:24;;;;;;;14.45;4.90;;;5.00;99.90;;;;;;5060723;28;20051;-44
2022/12/07 11:18:09;;;;;;;23.98;13.45;;;4.90;99.90;;;;;;5069323;28;20056;-42
2022/12/07 11:20:55;;;;;;;10.43;4.35;;;4.90;99.90;;;;;;5059144;28;20887;-44
2022/12/07 11:23:29;;;;;;;15.18;3.55;;;4.90;99.90;;;;;;5070843;28;20071;-47
2022/12/07 11:26:03;;;;;;;11.43;4.75;;;4.90;99.90;;;;;;5075921;28;20105;-47
2022/12/07 11:28:44;;;;;;;;;;;4.90;99.90;;;;;;5077146;28;20071;-44
2022/12/07 11:31:31;;;;;;;17.35;10.93;;;4.90;99.90;;;;;;5076230;28;20394;-44
2022/12/07 11:34:18;;;;;;;14.75;9.32;;;4.80;99.90;;;;;;5075490;28;20087;-41
2022/12/07 11:36:48;;;;;;;18.17;12.88;;;4.80;99.90;;;;;;5075456;28;20055;-43
2022/12/07 11:39:33;;;;;;;12.35;3.47;;;4.80;99.90;;;;;;5066068;28;20052;-45
2022/12/07 11:42:11;;;;;;;12.25;4.10;;;4.70;99.90;;;;;;5058431;28;20190;-45
2022/12/07 11:44:58;;;;;;;15.68;9.52;;;4.70;99.90;;;;;;5063396;28;20040;-43
2022/12/07 11:47:51;;;;;;;80.88;35.17;;;4.70;99.90;;;;;;5034064;28;20650;-46
2022/12/07 11:50:31;;;;;;;14.88;10.13;;;4.70;99.90;;;;;;5061724;28;20112;-41
2022/12/07 11:53:05;;;;;;;11.02;5.10;;;4.80;99.90;;;;;;5047133;28;20533;-43
2022/12/07 11:55:40;;;;;;;8.25;3.90;;;4.90;99.90;;;;;;5055935;28;20056;-44
2022/12/07 11:58:32;;;;;;;17.05;5.97;;;4.90;99.90;;;;;;5057873;28;20052;-44
2022/12/07 12:01:24;;;;;;;8.65;2.53;;;5.00;99.90;;;;;;5057902;28;20179;-43
2022/12/07 12:03:52;;;;;;;7.25;3.22;;;5.10;99.90;;;;;;5064435;28;20088;-45
2022/12/07 12:06:19;;;;;;;14.82;6.53;;;5.30;99.90;;;;;;5071654;28;20493;-43
2022/12/07 12:08:59;;;;;;;17.58;10.48;;;5.30;99.90;;;;;;5064469;28;20129;-47
2022/12/07 12:11:41;;;;;;;17.80;9.55;;;5.40;99.90;;;;;;5068613;28;20201;-43
2022/12/07 12:14:22;;;;;;;15.80;6.97;;;5.60;99.90;;;;;;5069941;28;20056;-44
2022/12/07 12:17:11;;;;;;;15.15;2.25;;;5.70;99.90;;;;;;5042339;28;20651;-47
2022/12/07 12:20:15;;;;;;;10.73;2.33;;;5.80;99.90;;;;;;5049111;28;20530;-46
2022/12/07 12:22:52;;;;;;;;;;;5.80;99.90;;;;;;5040913;28;20069;-44
2022/12/07 12:25:23;;;;;;;14.77;4.60;;;5.90;99.90;;;;;;5038710;28;20391;-44
2022/12/07 12:27:51;;;;;;;16.00;3.10;;;5.90;99.90;;;;;;5045458;28;20057;-48
2022/12/07 12:30:44;;;;;;;9.95;1.88;;;5.90;99.90;;;;;;5042795;28;20105;-43
2022/12/07 12:33:30;;;;;;;10.43;2.03;;;6.00;99.90;;;;;;5041056;28;20145;-46
2022/12/07 12:36:17;;;;;;;8.05;1.42;;;6.00;99.90;;;;;;5036402;28;20058;-48
2022/12/07 12:39:08;;;;;;;5.22;1.00;;;5.90;99.90;;;;;;5057056;28;20052;-48
2022/12/07 12:42:05;;;;;;;5.20;1.00;;;5.80;99.90;;;;;;5054336;28;20052;-45
2022/12/07 12:44:32;;;;;;;3.65;1.00;;;5.60;99.90;;;;;;5047139;28;20044;-46
2022/12/07 12:47:04;;;;;;;6.30;0.87;;;5.40;99.90;;;;;;5058513;28;20527;-43
2022/12/07 12:49:36;;;;;;;6.65;0.98;;;5.30;99.90;;;;;;5060268;28;20289;-48
2022/12/07 12:52:39;;;;;;;5.53;0.82;;;5.30;99.90;;;;;;5058500;28;20453;-46
2022/12/07 12:55:08;;;;;;;3.47;0.85;;;5.40;99.90;;;;;;5055626;28;20040;-46
2022/12/07 12:57:35;;;;;;;6.18;1.10;;;5.40;99.90;;;;;;5056619;28;20052;-45
2022/12/07 13:00:22;;;;;;;8.80;1.58;;;5.50;99.90;;;;;;5055431;28;20484;-43
2022/12/07 13:02:48;;;;;;;5.85;1.38;;;5.60;99.90;;;;;;5056742;28;20051;-41
2022/12/07 13:05:17;;;;;;;9.32;5.22;;;5.60;99.90;;;;;;5055417;28;20112;-42
2022/12/07 13:07:51;;;;;;;7.20;2.30;;;5.70;99.90;;;;;;5056119;28;20040;-40
2022/12/07 13:10:28;;;;;;;9.23;4.75;;;5.80;99.90;;;;;;5052821;28;20443;-41
2022/12/07 13:13:00;;;;;;;13.95;5.22;;;5.70;99.90;;;;;;5057099;28;20048;-46
2022/12/07 13:15:35;;;;;;;10.23;5.95;;;5.60;99.90;;;;;;5057684;28;20127;-46
2022/12/07 13:18:04;;;;;;;5.25;1.40;;;5.60;99.90;;;;;;5054701;28;20159;-45